createdAt,value
2022-08-11T00:02:32.106Z,2.87
2022-08-11T00:05:06.170Z,3.23
2022-08-11T00:07:36.145Z,4.07
2022-08-11T00:10:04.700Z,3.20
2022-08-11T00:12:33.110Z,3.30
2022-08-11T00:15:02.249Z,3.30
2022-08-11T00:17:34.098Z,3.20
2022-08-11T00:20:15.369Z,3.80
2022-08-11T00:22:47.951Z,3.17
2022-08-11T00:25:18.453Z,2.80
2022-08-11T00:27:48.072Z,3.20
2022-08-11T00:30:17.315Z,3.40
2022-08-11T00:32:54.827Z,3.00
2022-08-11T00:35:51.762Z,3.53
2022-08-11T00:38:18.287Z,2.93
2022-08-11T00:40:53.121Z,3.53
2022-08-11T00:43:43.416Z,3.07
2022-08-11T00:46:19.256Z,3.37
2022-08-11T00:48:57.204Z,3.43
2022-08-11T00:52:02.295Z,3.60
2022-08-11T00:54:54.629Z,3.90
2022-08-11T00:58:07.219Z,2.87
2022-08-11T01:00:48.510Z,3.10
2022-08-11T01:03:26.435Z,2.70
2022-08-11T01:06:22.700Z,3.47
2022-08-11T01:09:24.303Z,3.20
2022-08-11T01:12:07.110Z,3.20
2022-08-11T01:15:09.677Z,2.73
2022-08-11T01:18:12.444Z,3.27
2022-08-11T01:21:19.887Z,4.53
2022-08-11T01:24:31.409Z,3.20
2022-08-11T01:27:39.622Z,3.37
2022-08-11T01:30:49.780Z,3.30
2022-08-11T01:33:52.818Z,3.50
2022-08-11T01:36:56.618Z,3.60
2022-08-11T01:39:55.516Z,3.17
2022-08-11T01:43:17.117Z,4.10
2022-08-11T01:45:51.755Z,4.00
2022-08-11T01:48:29.502Z,3.50
2022-08-11T01:51:17.283Z,3.70
2022-08-11T01:53:56.555Z,4.40
2022-08-11T01:56:35.476Z,3.70
2022-08-11T01:59:12.176Z,3.77
2022-08-11T02:01:51.942Z,4.00
2022-08-11T02:04:31.963Z,3.70
2022-08-11T02:07:08.838Z,3.50
2022-08-11T02:09:57.511Z,3.17
2022-08-11T02:12:52.504Z,4.10
2022-08-11T02:15:28.815Z,3.60
2022-08-11T02:18:07.399Z,3.93
2022-08-11T02:21:01.553Z,4.27
2022-08-11T02:24:06.642Z,3.60
2022-08-11T02:26:40.371Z,3.50
2022-08-11T02:29:15.423Z,4.37
2022-08-11T02:32:24.276Z,3.60
2022-08-11T02:35:01.335Z,4.20
2022-08-11T02:37:39.132Z,3.83
2022-08-11T02:40:18.178Z,4.07
2022-08-11T02:42:59.737Z,4.13
2022-08-11T02:45:42.202Z,4.23
2022-08-11T02:49:01.554Z,4.30
2022-08-11T02:51:39.046Z,4.13
2022-08-11T02:54:12.555Z,3.80
2022-08-11T02:56:52.744Z,4.47
2022-08-11T02:59:53.871Z,4.33
2022-08-11T03:02:31.673Z,4.80
2022-08-11T03:05:09.228Z,4.10
2022-08-11T03:08:08.825Z,4.63
2022-08-11T03:10:45.262Z,3.93
2022-08-11T03:13:38.463Z,4.57
2022-08-11T03:16:32.470Z,4.67
2022-08-11T03:19:08.907Z,4.60
2022-08-11T03:22:02.474Z,4.73
2022-08-11T03:24:38.592Z,3.97
2022-08-11T03:27:11.099Z,4.87
2022-08-11T03:29:44.675Z,4.10
2022-08-11T03:32:25.849Z,4.40
2022-08-11T03:34:55.183Z,4.30
2022-08-11T03:37:50.530Z,4.00
2022-08-11T03:40:52.629Z,4.37
2022-08-11T03:43:30.617Z,4.13
2022-08-11T03:46:05.402Z,4.53
2022-08-11T03:48:44.679Z,4.77
2022-08-11T03:51:21.285Z,4.50
2022-08-11T03:53:57.525Z,5.73
2022-08-11T03:57:16.214Z,4.23
2022-08-11T04:00:12.361Z,5.17
2022-08-11T04:02:57.167Z,3.50
2022-08-11T04:06:03.656Z,4.43
2022-08-11T04:08:56.946Z,4.20
2022-08-11T04:11:54.983Z,4.20
2022-08-11T04:15:01.484Z,4.23
2022-08-11T04:17:54.131Z,4.90
2022-08-11T04:20:50.590Z,4.10
2022-08-11T04:24:35.917Z,4.00
2022-08-11T04:27:07.369Z,3.80
2022-08-11T04:30:03.470Z,3.60
2022-08-11T04:32:46.154Z,3.13
2022-08-11T04:35:33.386Z,3.83
2022-08-11T04:38:26.046Z,4.10
2022-08-11T04:41:58.771Z,4.20
2022-08-11T04:45:12.151Z,3.93
2022-08-11T04:48:10.288Z,3.00
2022-08-11T04:51:23.267Z,3.57
2022-08-11T04:54:19.550Z,4.23
2022-08-11T04:57:07.346Z,4.47
2022-08-11T05:00:07.424Z,3.33
2022-08-11T05:03:09.230Z,3.77
2022-08-11T05:05:56.181Z,3.97
2022-08-11T05:08:48.312Z,3.93
2022-08-11T05:11:38.082Z,4.10
2022-08-11T05:14:45.647Z,3.63
2022-08-11T05:17:34.436Z,4.40
2022-08-11T05:20:20.397Z,4.20
2022-08-11T05:23:07.790Z,3.93
2022-08-11T05:26:44.012Z,3.33
2022-08-11T05:29:19.801Z,3.97
2022-08-11T05:32:14.846Z,4.50
2022-08-11T05:34:54.866Z,4.60
2022-08-11T05:37:27.829Z,3.50
2022-08-11T05:40:16.750Z,3.50
2022-08-11T05:43:07.877Z,3.50
2022-08-11T05:46:02.557Z,4.43
2022-08-11T05:48:52.566Z,4.17
2022-08-11T05:51:38.569Z,3.63
2022-08-11T05:54:29.509Z,3.67
2022-08-11T05:57:00.760Z,3.30
2022-08-11T05:59:29.454Z,3.00
2022-08-11T06:02:04.244Z,3.60
2022-08-11T06:04:33.184Z,4.37
2022-08-11T06:07:04.127Z,3.23
2022-08-11T06:09:35.147Z,3.60
2022-08-11T06:12:08.546Z,4.50
2022-08-11T06:14:43.625Z,3.60
2022-08-11T06:17:13.863Z,4.20
2022-08-11T06:19:43.751Z,3.90
2022-08-11T06:22:12.848Z,3.83
2022-08-11T06:24:45.600Z,3.50
2022-08-11T06:27:20.885Z,3.07
2022-08-11T06:29:54.717Z,2.90
2022-08-11T06:32:30.690Z,3.37
2022-08-11T06:35:13.562Z,2.93
2022-08-11T06:37:48.638Z,4.10
2022-08-11T06:40:28.588Z,3.40
2022-08-11T06:43:02.342Z,3.60
2022-08-11T06:45:40.164Z,3.33
2022-08-11T06:48:17.518Z,3.20
2022-08-11T06:51:09.600Z,3.40
2022-08-11T06:53:41.096Z,4.40
2022-08-11T06:56:27.742Z,3.67
2022-08-11T06:59:13.728Z,3.60
2022-08-11T07:01:49.692Z,3.30
2022-08-11T07:04:29.826Z,3.30
2022-08-11T07:07:25.544Z,3.20
2022-08-11T07:10:35.917Z,2.90
2022-08-11T07:13:44.654Z,3.10
2022-08-11T07:16:13.904Z,2.83
2022-08-11T07:19:01.470Z,2.20
2022-08-11T07:22:02.565Z,2.30
2022-08-11T07:24:59.549Z,2.10
2022-08-11T07:27:51.723Z,2.53
2022-08-11T07:30:20.003Z,2.80
2022-08-11T07:32:51.726Z,2.47
2022-08-11T07:35:23.891Z,2.10
2022-08-11T07:38:01.760Z,2.17
2022-08-11T07:40:31.599Z,2.03
2022-08-11T07:43:01.141Z,2.43
2022-08-11T07:45:46.996Z,2.17
2022-08-11T07:48:33.881Z,2.23
2022-08-11T07:51:19.983Z,1.73
2022-08-11T07:53:58.606Z,1.83
2022-08-11T07:56:39.492Z,1.97
2022-08-11T07:59:58.536Z,2.00
2022-08-11T08:02:58.174Z,2.60
2022-08-11T08:05:44.016Z,1.80
2022-08-11T08:08:29.818Z,2.10
2022-08-11T08:11:16.831Z,2.30
2022-08-11T08:14:02.882Z,2.37
2022-08-11T08:16:49.704Z,2.07
2022-08-11T08:19:20.745Z,2.50
2022-08-11T08:21:49.293Z,2.30
2022-08-11T08:24:20.224Z,2.20
2022-08-11T08:27:03.247Z,2.07
2022-08-11T08:29:51.860Z,1.70
2022-08-11T08:32:21.869Z,2.37
2022-08-11T08:34:54.255Z,2.10
2022-08-11T08:37:46.710Z,1.80
2022-08-11T08:40:14.879Z,1.90
2022-08-11T08:42:51.505Z,2.40
2022-08-11T08:45:19.883Z,1.80
2022-08-11T08:47:53.784Z,2.43
2022-08-11T08:50:27.765Z,2.20
2022-08-11T08:52:59.713Z,2.20
2022-08-11T08:55:28.937Z,2.10
2022-08-11T08:58:00.718Z,2.13
2022-08-11T09:00:40.140Z,2.80
2022-08-11T09:03:38.247Z,2.53
2022-08-11T09:05:57.199Z,2.50
2022-08-11T09:08:25.598Z,2.50
2022-08-11T09:11:13.302Z,2.27
2022-08-11T09:13:44.750Z,2.23
2022-08-11T09:16:13.441Z,2.20
2022-08-11T09:18:44.644Z,1.77
2022-08-11T09:21:14.862Z,2.07
2022-08-11T09:24:26.086Z,2.00
2022-08-11T09:27:01.173Z,2.47
2022-08-11T09:29:32.284Z,2.20
2022-08-11T09:32:00.993Z,2.20
2022-08-11T09:34:29.787Z,2.23
2022-08-11T09:37:19.576Z,2.27
2022-08-11T09:40:27.247Z,2.00
2022-08-11T09:43:13.451Z,2.10
2022-08-11T09:45:46.290Z,2.23
2022-08-11T09:48:14.759Z,2.70
2022-08-11T09:50:43.138Z,1.80
2022-08-11T09:53:36.456Z,2.27
2022-08-11T09:56:20.889Z,2.07
2022-08-11T09:58:48.309Z,2.20
2022-08-11T10:01:27.656Z,2.27
2022-08-11T10:04:01.417Z,1.57
2022-08-11T10:06:47.902Z,2.10
2022-08-11T10:09:25.298Z,2.27
2022-08-11T10:11:58.576Z,2.17
2022-08-11T10:14:46.547Z,2.07
2022-08-11T10:17:17.480Z,2.23
2022-08-11T10:20:05.207Z,2.17
2022-08-11T10:22:55.167Z,2.07
2022-08-11T10:25:41.154Z,2.13
2022-08-11T10:28:30.371Z,2.07
2022-08-11T10:31:16.820Z,2.00
2022-08-11T10:34:03.903Z,2.00
2022-08-11T10:36:33.813Z,2.20
2022-08-11T10:39:06.283Z,2.23
2022-08-11T10:42:08.719Z,1.80
2022-08-11T10:44:40.145Z,1.87
2022-08-11T10:47:26.711Z,2.00
2022-08-11T10:50:11.359Z,2.13
2022-08-11T10:52:58.305Z,2.03
2022-08-11T10:55:44.731Z,2.27
2022-08-11T10:58:30.692Z,2.20
2022-08-11T11:00:59.423Z,2.27
2022-08-11T11:03:29.845Z,2.37
2022-08-11T11:06:27.760Z,2.07
2022-08-11T11:09:04.030Z,1.87
2022-08-11T11:11:55.049Z,1.87
2022-08-11T11:14:46.399Z,2.70
2022-08-11T11:17:44.049Z,2.27
2022-08-11T11:20:36.078Z,2.13
2022-08-11T11:23:09.407Z,2.07
2022-08-11T11:26:06.763Z,2.10
2022-08-11T11:29:00.560Z,2.20
2022-08-11T11:31:40.618Z,1.50
2022-08-11T11:34:20.118Z,1.83
2022-08-11T11:36:50.672Z,2.10
2022-08-11T11:39:23.958Z,1.90
2022-08-11T11:41:54.681Z,1.90
2022-08-11T11:44:23.796Z,1.97
2022-08-11T11:46:52.311Z,2.40
2022-08-11T11:51:59.490Z,1.80
2022-08-11T11:54:31.494Z,2.00
2022-08-11T11:57:20.744Z,1.93
2022-08-11T12:00:07.199Z,1.83
2022-08-11T12:02:39.101Z,1.70
2022-08-11T12:05:09.017Z,2.20
2022-08-11T12:07:56.897Z,2.20
2022-08-11T12:10:45.633Z,2.10
2022-08-11T12:13:32.147Z,2.07
2022-08-11T12:16:33.683Z,2.23
2022-08-11T12:18:54.473Z,1.90
2022-08-11T12:21:23.091Z,1.97
2022-08-11T12:24:09.253Z,1.77
2022-08-11T12:27:14.989Z,1.80
2022-08-11T12:29:45.360Z,1.90
2022-08-11T12:32:13.594Z,1.67
2022-08-11T12:34:42.010Z,2.00
2022-08-11T12:37:13.782Z,2.10
2022-08-11T12:40:17.187Z,1.73
2022-08-11T12:43:21.717Z,2.07
2022-08-11T12:45:52.672Z,2.13
2022-08-11T12:49:00.784Z,1.97
2022-08-11T12:52:11.287Z,1.90
2022-08-11T12:54:46.259Z,1.90
2022-08-11T12:57:37.438Z,2.10
2022-08-11T13:00:27.207Z,1.70
2022-08-11T13:03:13.668Z,1.80
2022-08-11T13:05:45.080Z,1.87
2022-08-11T13:08:15.270Z,2.10
2022-08-11T13:11:02.003Z,1.87
2022-08-11T13:13:55.741Z,2.50
2022-08-11T13:16:20.768Z,2.00
2022-08-11T13:18:50.247Z,2.10
2022-08-11T13:21:20.060Z,1.67
2022-08-11T13:24:00.758Z,2.10
2022-08-11T13:26:46.941Z,2.00
2022-08-11T13:29:19.930Z,1.83
2022-08-11T13:31:49.697Z,2.10
2022-08-11T13:34:18.491Z,1.93
2022-08-11T13:36:50.110Z,2.23
2022-08-11T13:39:19.030Z,2.20
2022-08-11T13:41:48.602Z,2.20
2022-08-11T13:44:24.708Z,2.10
2022-08-11T13:46:56.399Z,2.33
2022-08-11T13:49:25.235Z,2.10
2022-08-11T13:51:53.999Z,2.30
2022-08-11T13:54:24.847Z,2.03
2022-08-11T13:56:56.162Z,2.00
2022-08-11T13:59:29.904Z,2.30
2022-08-11T14:02:28.497Z,2.00
2022-08-11T14:04:55.603Z,1.73
2022-08-11T14:07:26.102Z,2.00
2022-08-11T14:09:57.894Z,2.40
2022-08-11T14:12:45.312Z,2.00
2022-08-11T14:15:20.216Z,2.20
2022-08-11T14:17:54.263Z,1.80
2022-08-11T14:20:40.126Z,1.90
2022-08-11T14:23:11.096Z,1.80
2022-08-11T14:26:02.438Z,2.00
2022-08-11T14:28:39.902Z,2.00
2022-08-11T14:31:10.334Z,1.87
2022-08-11T14:33:59.859Z,1.60
2022-08-11T14:36:31.867Z,2.30
2022-08-11T14:39:00.217Z,2.30
2022-08-11T14:42:10.302Z,2.10
2022-08-11T14:45:02.137Z,2.50
2022-08-11T14:47:33.152Z,2.10
2022-08-11T14:50:10.917Z,2.20
2022-08-11T14:52:51.125Z,2.27
2022-08-11T14:55:39.673Z,2.40
2022-08-11T14:58:10.151Z,2.23
2022-08-11T15:00:39.096Z,2.13
2022-08-11T15:03:13.555Z,2.20
2022-08-11T15:05:57.591Z,2.10
2022-08-11T15:08:42.844Z,2.10
2022-08-11T15:11:32.416Z,2.10
2022-08-11T15:14:02.617Z,2.33
2022-08-11T15:16:53.919Z,2.00
2022-08-11T15:19:22.646Z,1.73
2022-08-11T15:22:09.871Z,1.93
2022-08-11T15:24:38.510Z,1.70
2022-08-11T15:27:28.504Z,1.67
2022-08-11T15:30:18.253Z,2.07
2022-08-11T15:33:20.871Z,1.60
2022-08-11T15:36:06.453Z,1.93
2022-08-11T15:38:37.418Z,1.83
2022-08-11T15:41:24.373Z,2.03
2022-08-11T15:44:44.453Z,2.10
2022-08-11T15:47:14.432Z,2.00
2022-08-11T15:50:11.734Z,1.97
2022-08-11T15:52:37.945Z,2.50
2022-08-11T15:55:09.633Z,2.10
2022-08-11T15:57:55.485Z,2.20
2022-08-11T16:00:41.852Z,1.80
2022-08-11T16:04:06.519Z,1.80
2022-08-11T16:06:17.272Z,1.93
2022-08-11T16:08:46.199Z,2.23
2022-08-11T16:11:16.551Z,1.93
2022-08-11T16:14:02.295Z,1.80
2022-08-11T16:16:34.599Z,2.27
2022-08-11T16:19:05.378Z,2.20
2022-08-11T16:21:36.306Z,1.90
2022-08-11T16:24:08.113Z,1.70
2022-08-11T16:27:11.066Z,1.93
2022-08-11T16:29:32.914Z,1.90
2022-08-11T16:32:18.388Z,1.93
2022-08-11T16:35:06.589Z,2.07
2022-08-11T16:37:55.767Z,2.03
2022-08-11T16:40:24.648Z,1.47
2022-08-11T16:43:12.740Z,2.27
2022-08-11T16:45:59.935Z,1.80
2022-08-11T16:48:37.325Z,1.70
2022-08-11T16:51:07.293Z,1.90
2022-08-11T16:53:59.854Z,2.90
2022-08-11T16:56:26.772Z,1.90
2022-08-11T16:59:16.657Z,2.00
2022-08-11T17:01:49.578Z,2.37
2022-08-11T17:04:40.313Z,2.47
2022-08-11T17:07:40.471Z,2.10
2022-08-11T17:10:55.655Z,1.80
2022-08-11T17:13:32.248Z,2.20
2022-08-11T17:16:12.390Z,1.97
2022-08-11T17:18:47.498Z,1.93
2022-08-11T17:21:20.117Z,2.43
2022-08-11T17:23:51.076Z,1.90
2022-08-11T17:26:27.005Z,2.20
2022-08-11T17:28:58.415Z,1.83
2022-08-11T17:31:46.369Z,1.97
2022-08-11T17:34:32.866Z,2.23
2022-08-11T17:37:02.527Z,2.00
2022-08-11T17:39:34.804Z,2.00
2022-08-11T17:42:20.430Z,2.43
2022-08-11T17:45:07.027Z,1.80
2022-08-11T17:47:53.999Z,2.03
2022-08-11T17:50:22.580Z,2.23
2022-08-11T17:53:08.862Z,1.80
2022-08-11T17:55:56.035Z,2.17
2022-08-11T17:58:44.280Z,2.00
2022-08-11T18:01:13.238Z,2.53
2022-08-11T18:03:56.424Z,2.37
2022-08-11T18:06:33.824Z,2.50
2022-08-11T18:09:22.905Z,2.30
2022-08-11T18:12:12.230Z,2.47
2022-08-11T18:14:59.550Z,1.97
2022-08-11T18:17:45.108Z,2.07
2022-08-11T18:20:32.402Z,2.10
2022-08-11T18:23:18.468Z,2.13
2022-08-11T18:26:06.475Z,1.77
2022-08-11T18:28:58.184Z,2.37
2022-08-11T18:31:44.702Z,2.30
2022-08-11T18:34:33.007Z,2.00
2022-08-11T18:37:25.970Z,2.10
2022-08-11T18:40:17.073Z,2.17
2022-08-11T18:43:03.984Z,2.20
2022-08-11T18:45:51.288Z,2.03
2022-08-11T18:48:54.647Z,2.10
2022-08-11T18:51:42.114Z,2.20
2022-08-11T18:54:30.417Z,2.20
2022-08-11T18:57:19.823Z,2.00
2022-08-11T19:00:06.671Z,2.30
2022-08-11T19:02:54.685Z,2.60
2022-08-11T19:06:35.688Z,1.93
2022-08-11T19:08:49.334Z,2.40
2022-08-11T19:11:42.472Z,2.60
2022-08-11T19:14:30.977Z,2.33
2022-08-11T19:17:44.786Z,2.70
2022-08-11T19:20:27.378Z,2.00
2022-08-11T19:23:14.407Z,2.33
2022-08-11T19:26:02.423Z,1.90
2022-08-11T19:28:50.441Z,2.20
2022-08-11T19:31:42.283Z,2.33
2022-08-11T19:34:36.234Z,1.70
2022-08-11T19:37:25.000Z,2.37
2022-08-11T19:40:11.960Z,2.17
2022-08-11T19:42:59.271Z,2.40
2022-08-11T19:45:51.206Z,1.53
2022-08-11T19:48:40.669Z,1.97
2022-08-11T19:51:28.171Z,2.00
2022-08-11T19:54:14.299Z,2.00
2022-08-11T19:57:01.949Z,2.43
2022-08-11T19:59:48.578Z,2.10
2022-08-11T20:02:35.990Z,2.03
2022-08-11T20:05:22.559Z,1.70
2022-08-11T20:08:08.549Z,2.20
2022-08-11T20:10:55.616Z,2.13
2022-08-11T20:13:43.503Z,2.10
2022-08-11T20:16:31.418Z,2.30
2022-08-11T20:19:26.320Z,2.20
2022-08-11T20:22:26.447Z,4.10
2022-08-11T20:25:13.597Z,2.13
2022-08-11T20:28:01.020Z,2.30
2022-08-11T20:30:47.990Z,2.47
2022-08-11T20:33:38.194Z,1.90
2022-08-11T20:36:26.486Z,2.17
2022-08-11T20:39:13.051Z,2.60
2022-08-11T20:41:59.708Z,2.30
2022-08-11T20:44:46.443Z,1.90
2022-08-11T20:47:33.490Z,2.20
2022-08-11T20:50:39.655Z,1.87
2022-08-11T20:53:27.314Z,2.00
2022-08-11T20:56:14.577Z,1.70
2022-08-11T20:59:14.273Z,2.43
2022-08-11T21:02:09.415Z,2.13
2022-08-11T21:04:55.536Z,2.10
2022-08-11T21:07:42.450Z,2.10
2022-08-11T21:10:30.075Z,1.87
2022-08-11T21:13:26.790Z,2.20
2022-08-11T21:16:26.354Z,2.23
2022-08-11T21:19:16.626Z,2.20
2022-08-11T21:22:03.831Z,2.40
2022-08-11T21:24:52.427Z,2.27
2022-08-11T21:27:40.371Z,2.37
2022-08-11T21:30:27.237Z,2.40
2022-08-11T21:36:29.166Z,2.20
2022-08-11T21:39:17.447Z,2.57
2022-08-11T21:42:05.349Z,2.23
2022-08-11T21:44:53.798Z,1.90
2022-08-11T21:47:42.961Z,1.93
2022-08-11T21:50:30.227Z,2.40
2022-08-11T21:53:16.799Z,2.17
2022-08-11T21:56:02.714Z,1.80
2022-08-11T21:58:49.313Z,2.23
2022-08-11T22:01:37.289Z,2.40
2022-08-11T22:04:24.006Z,2.33
2022-08-11T22:07:10.542Z,2.13
2022-08-11T22:09:57.148Z,2.10
2022-08-11T22:12:45.197Z,2.27
2022-08-11T22:15:31.237Z,1.97
2022-08-11T22:18:19.709Z,2.60
2022-08-11T22:21:05.798Z,2.30
2022-08-11T22:23:52.961Z,2.30
2022-08-11T22:26:41.287Z,2.43
2022-08-11T22:29:49.966Z,2.30
2022-08-11T22:32:34.426Z,2.50
2022-08-11T22:35:22.830Z,2.20
2022-08-11T22:38:08.688Z,2.50
2022-08-11T22:40:55.762Z,2.27
2022-08-11T22:43:41.708Z,2.57
2022-08-11T22:46:27.842Z,2.10
2022-08-11T22:49:14.410Z,2.30
2022-08-11T22:52:03.505Z,2.30
2022-08-11T22:54:50.921Z,2.00
2022-08-11T22:57:36.942Z,2.10
2022-08-11T23:00:25.061Z,2.50
2022-08-11T23:03:21.097Z,2.47
2022-08-11T23:06:23.610Z,2.37
2022-08-11T23:09:11.762Z,2.73
2022-08-11T23:12:05.932Z,2.53
2022-08-11T23:15:04.657Z,2.43
2022-08-11T23:17:51.954Z,2.70
2022-08-11T23:20:42.476Z,2.60
2022-08-11T23:23:30.439Z,2.53
2022-08-11T23:26:34.884Z,1.90
2022-08-11T23:29:22.582Z,2.10
2022-08-11T23:32:09.155Z,2.07
2022-08-11T23:35:03.860Z,2.30
2022-08-11T23:37:52.134Z,1.93
2022-08-11T23:40:40.379Z,2.50
2022-08-11T23:43:47.500Z,2.50
2022-08-11T23:46:33.303Z,2.20
2022-08-11T23:49:21.824Z,2.40
2022-08-11T23:52:08.406Z,2.40
2022-08-11T23:54:54.826Z,2.17
2022-08-11T23:57:47.782Z,2.00
